Yonago, Japan

5:14 PM JST on February 14, 2016 (GMT +0900)
Izumo | | Change Station
CLOSE
Current Station
Airport
Location: Izumo,
Elevation: 16 ft
Nearby Weather Stations

Elev 16 ft 35.41 °N, 132.89 °E | Updated 5 minutes ago

Light Rain Showers
Light Showers Rain Mist
48 °F
Feels Like 48 °F
N
9
Wind Variable Wind from West

Today
High -- | Low -- °F
--% Chance of Precip.
Yesterday
High -- | Low -- °F
Precip. -- in
Pressure 29.74 in
Visibility 3.1 miles
Clouds Few 700 ft
Scattered Clouds 1000 ft
Mostly Cloudy 1500 ft
Dew Point 46 °F
Humidity 93%
Rainfall 0.00 in
Snow Depth Not available.
6:55 AM 5:46 PM
Waxing Crescent, 39% visible
SPECI RJOC 140809Z 26008KT 5000 -SHRA BR FEW007 SCT010 BKN015 09/08 Q1007 RMK 1ST007 4CU010 5CU015 A2974
Pressure 29.74 in
Visibility 3.1 miles
Clouds Few 700 ft
Scattered Clouds 1000 ft
Mostly Cloudy 1500 ft
Dew Point 46 °F
Humidity 93%
Rainfall 0.00 in
Snow Depth Not available.
6:55 AM 5:46 PM
Waxing Crescent, 39% visible
SPECI RJOC 140809Z 26008KT 5000 -SHRA BR FEW007 SCT010 BKN015 09/08 Q1007 RMK 1ST007 4CU010 5CU015 A2974

10-Day Weather Forecast

No radar image for this location.
×

Almanac

Astronomy

Feb. 14, 2016 Rise Set
Actual Time
Civil Twilight
Nautical Twilight
Astronomical Twilight
Moon
Length of Visible Light
Length of Day
Tomorrow will be .
, % of the Moon is Illuminated

Today's Extremes

Country Highs Country Lows

Community

WunderPhotos

Upload Photos

1,892,757 photos uploaded!

WunderBlog® & News

Nearby

Air Quality

  Air Quality AQ Index Pollutant
Not available.

Snow Depth

Station Depth Elevation

Earthquake Activity

City Distance Mag. Time & Date
Minimum magnitude displayed is 2.5.

Coastal Water Temperatures

Place Temperature

Stations

Nearby Weather Stations

Station Location Temp. Windchill Dew Point Humidity Wind Precip. Elev Updated Type